• Join FlightAware (Why Join?)
  • Login
  • US Flag 
10:53PM EDT


 

Airport Tracker/Info


-or-


 

Live Flight TrackerFlight Track Log ✈ SWA1887 ✈ 23-Jun-2013 ✈ KPHX - KSAN

Flight Track Log - Related Links

Times and Time Zones

All times are in EDT time to prevent confusion due to time zone crossing. See the SWA1887 flight status page for this flight to view local times or setup timezone preferences in your user account.

Time Position Orientation Groundspeed Altitude Reporting Facility
EDT Latitude Longitude Course Direction KTS MPH feet Rate Location/Type
10:05AM 33.4310 -111.9980 86° East 148 170 2,100  Level FlightAware
10:05AM 33.4330 -111.9700 85° East 189 217 3,100 2,100 Climbing FlightAware
10:06AM 33.4360 -111.9380 84° East 212 244 4,200 2,640 Climbing FlightAware
10:06AM 33.4190 -111.9010 119° Southeast 220 253 6,100 3,000 Climbing FlightAware
10:07AM 33.4040 -111.9050 193° South 220 253 6,900 3,300 Climbing FlightAware
10:07AM 33.3950 -111.9140 220° Southwest 219 252 7,600 3,660 Climbing FlightAware
10:07AM 33.3720 -111.9410 224° Southwest 216 249 9,600 2,940 Climbing FlightAware
10:08AM 33.3480 -111.9820 235° Southwest 260 299 11,100 1,980 Climbing FlightAware
10:09AM 33.3130 -112.0440 236° Southwest 333 383 12,400 2,520 Climbing FlightAware
10:09AM 33.2810 -112.1010 236° Southwest 349 402 14,600 3,540 Climbing FlightAware
10:10AM 33.2390 -112.1750 236° Southwest 361 415 17,200 3,420 Climbing FlightAware
10:11AM 33.1990 -112.2460 236° Southwest 371 427 19,600 3,240 Climbing FlightAware
10:12AM 33.1600 -112.3150 236° Southwest 383 441 21,700 3,000 Climbing FlightAware
10:12AM 33.1210 -112.3850 236° Southwest 393 452 23,600 3,180 Climbing FlightAware
10:13AM 33.0800 -112.4570 236° Southwest 391 450 25,900 3,360 Climbing FlightAware
10:14AM 33.0390 -112.5280 235° Southwest 382 440 28,200 3,600 Climbing FlightAware
10:14AM 33.0010 -112.5950 236° Southwest 365 420 30,700 2,880 Climbing FlightAware
10:15AM 32.9660 -112.6600 237° Southwest 361 415 32,000 960 Climbing FlightAware
10:16AM 32.9480 -112.7390 255° West 359 413 32,000  Level FlightAware
10:16AM 32.9360 -112.8240 260° West 360 414 32,000  Level FlightAware
10:17AM 32.9250 -112.9040 261° West 360 414 32,000  Level FlightAware
10:18AM 32.9150 -112.9770 261° West 361 415 32,000  Level FlightAware
10:18AM 32.9090 -113.0270 262° West 360 414 32,000  Level FlightAware
10:19AM 32.9000 -113.0920 261° West 360 414 32,000  Level FlightAware
10:19AM 32.8930 -113.1440 261° West 360 414 32,000  Level FlightAware
10:20AM 32.8810 -113.2300 261° West 360 414 32,000  Level FlightAware
10:21AM 32.8680 -113.3180 260° West 360 414 32,000  Level FlightAware
10:21AM 32.8580 -113.3910 261° West 359 413 32,000  Level FlightAware
10:22AM 32.8470 -113.4690 260° West 358 412 32,000  Level FlightAware
10:23AM 32.8350 -113.5540 260° West 358 412 32,000  Level FlightAware
10:23AM 32.8230 -113.6450 261° West 358 412 32,000  Level FlightAware
10:24AM 32.8090 -113.7380 260° West 359 413 32,000  Level FlightAware
10:25AM 32.7970 -113.8270 261° West 358 412 32,000  Level FlightAware
10:26AM 32.7820 -113.9300 260° West 358 412 32,000  Level FlightAware
10:27AM 32.7750 -114.0230 265° West 360 414 32,000  Level FlightAware
10:27AM 32.7750 -114.0930 270° West 360 414 32,000  Level FlightAware
10:28AM 32.7740 -114.1810 269° West 359 413 32,000  Level FlightAware
10:29AM 32.7730 -114.2580 269° West 359 413 32,000  Level FlightAware
10:29AM 32.7720 -114.3080 269° West 359 413 32,000  Level FlightAware
10:30AM 32.7710 -114.3780 269° West 358 412 32,000  Level FlightAware
10:30AM 32.7700 -114.4760 269° West 360 414 32,000  Level FlightAware
10:31AM 32.7690 -114.5430 269° West 360 414 32,000  Level FlightAware
10:32AM 32.7680 -114.6040 269° West 360 414 32,000  Level FlightAware
10:33AM 32.7670 -114.6810 269° West 360 414 32,000  Level FlightAware
10:33AM 32.7660 -114.7640 269° West 360 414 32,000  Level FlightAware
10:34AM 32.7650 -114.8290 269° West 360 414 32,000  Level FlightAware
10:34AM 32.7640 -114.8710 268° West 360 414 32,000  Level FlightAware
10:35AM 32.7630 -114.9690 269° West 360 414 32,000  Level FlightAware
10:36AM 32.7620 -115.0310 269° West 360 414 32,000  Level FlightAware
10:37AM 32.7600 -115.1140 268° West 360 414 32,000  Level FlightAware
10:37AM 32.7590 -115.1810 269° West 360 414 32,000  Level FlightAware
10:38AM 32.7590 -115.2420 270° West 360 414 32,000 -4,320 Level FlightAware
10:39AM 32.7500 -115.4490 267° West 353 406 26,900 -4,080 Descending FlightAware
10:40AM 32.7500 -115.5560 270° West 350 403 26,000 -1,020 Descending FlightAware
10:40AM 32.7520 -115.6400 272° West 349 402 25,300 -1,020 Descending FlightAware
10:41AM 32.7540 -115.7230 272° West 357 411 24,600 -1,080 Descending FlightAware
10:42AM 32.7560 -115.8040 272° West 351 404 23,800 -1,620 Descending FlightAware
10:42AM 32.7580 -115.8840 272° West 340 391 22,400 -2,040 Descending FlightAware
10:43AM 32.7600 -115.9580 272° West 331 381 21,000 -2,100 Descending FlightAware
10:44AM 32.7620 -116.0340 272° West 326 375 19,500 -2,160 Descending FlightAware
10:44AM 32.7630 -116.0930 271° West 323 372 18,300 -2,160 Descending FlightAware
10:45AM 32.7640 -116.1740 271° West 320 368 16,700 -2,160 Descending FlightAware
10:46AM 32.7660 -116.2490 272° West 315 362 15,200 -1,980 Descending FlightAware
10:47AM 32.7620 -116.3210 266° West 308 354 13,900 -1,980 Descending FlightAware
10:47AM 32.7530 -116.3800 260° West 314 361 12,700 -1,980 Descending FlightAware
10:48AM 32.7420 -116.4580 261° West 310 357 11,200 -1,680 Descending FlightAware
10:49AM 32.7310 -116.5320 260° West 291 335 10,200 -1,140 Descending FlightAware
10:49AM 32.7250 -116.5740 260° West 270 311 9,900 -1,080 Descending FlightAware
10:50AM 32.7190 -116.6140 260° West 265 305 9,200 -1,440 Descending FlightAware
10:50AM 32.7130 -116.6550 260° West 263 303 8,600 -1,320 Descending FlightAware
10:50AM 32.7120 -116.6940 268° West 260 299 8,000 -1,500 Descending FlightAware
10:51AM 32.7100 -116.7310 266° West 257 296 7,300 -1,500 Descending FlightAware
10:51AM 32.7090 -116.7700 268° West 255 293 6,700 -1,200 Descending FlightAware
10:52AM 32.7080 -116.8100 268° West 249 287 6,200 -900 Descending FlightAware
10:52AM 32.7050 -116.8260 257° West 243 280 6,100 -1,140 Descending FlightAware
10:53AM 32.6930 -116.8650 250° West 244 281 5,400 -1,020 Descending FlightAware
10:53AM 32.6830 -116.9000 251° West 231 266 5,100 -1,020 Descending FlightAware
10:53AM 32.6740 -116.9300 250° West 236 272 4,500 -1,320 Descending FlightAware
10:54AM 32.6800 -116.9690 280° West 223 257 3,900 -1,260 Descending FlightAware
10:54AM 32.6880 -117.0010 287° West 214 246 3,300 -1,320 Descending FlightAware
10:55AM 32.6940 -117.0270 285° West 196 226 2,800 -1,140 Descending FlightAware
10:55AM 32.7010 -117.0560 286° West 181 208 2,300 -1,020 Descending FlightAware
10:56AM 32.7080 -117.0850 286° West 175 201 1,800 -960 Descending FlightAware
10:56AM 32.7140 -117.1080 287° West 147 169 1,400 -900 Descending FlightAware
10:57AM 32.7190 -117.1280 287° West 135 155 1,000 -780 Descending FlightAware
10:57AM 32.7230 -117.1480 283° West 128 147 700 -720 Descending FlightAware
10:58AM 32.7270 -117.1630 288° West 134 154 400 -840 Descending FlightAware
10:58AM 32.7290 -117.1730 283° West 132 152 200 -840 Descending FlightAware
10:58AM 32.7340 -117.1930 287° West 78 90 -420 Descending FlightAware
10:59AM 32.7340 -117.1980 270° West 32 37  Level FlightAware
10:59AM 32.7340 -117.1970 90° East 25 29  Level FlightAware
11:00AM 32.7330 -117.1970 180° South 13 15  Level FlightAware
11:00AM 32.7330 -117.1960 90° East  Level FlightAware
11:06AM 32.7333 -117.1833 281° West  Level FlightAware Approximate
11:07AM 32.7336 -117.1897 281° West  Level Estimated